Time;durP1;ratioP1;P1;durP2;ratioP2;P2;SDS_P1;SDS_P2;PMS_P1;PMS_P2;Temp;Humidity;BMP_temperature;BMP_pressure;BME280_temperature;BME280_humidity;BME280_pressure;Samples;Min_cycle;Max_cycle;Signal;HPM_P1;HPM_P2
2023/11/01 00:01:15;;;;;;;1.00;0.50;;;;;;;;;;5077518;28;20021;-77
2023/11/01 00:03:41;;;;;;;0.30;0.30;;;;;;;;;;5076016;28;20031;-79
2023/11/01 00:06:07;;;;;;;0.32;0.32;;;;;;;;;;5076772;28;20386;-77
2023/11/01 00:08:33;;;;;;;0.32;0.30;;;;;;;;;;5075710;28;20025;-77
2023/11/01 00:11:00;;;;;;;0.65;0.30;;;;;;;;;;5061334;28;20028;-78
2023/11/01 00:13:26;;;;;;;1.75;0.28;;;;;;;;;;5075211;28;20029;-77
2023/11/01 00:15:52;;;;;;;0.50;0.20;;;;;;;;;;5076180;28;20031;-77
2023/11/01 00:18:18;;;;;;;0.20;0.20;;;;;;;;;;5076887;28;20023;-77
2023/11/01 00:20:44;;;;;;;0.38;0.30;;;;;;;;;;5073671;28;20534;-78
2023/11/01 00:23:10;;;;;;;0.60;0.30;;;;;;;;;;5062381;28;20067;-77
2023/11/01 00:25:36;;;;;;;0.70;0.25;;;;;;;;;;5074926;28;20025;-77
2023/11/01 00:28:02;;;;;;;0.30;0.30;;;;;;;;;;5075168;28;20036;-78
2023/11/01 00:30:28;;;;;;;0.25;0.17;;;;;;;;;;5075010;28;20024;-77
2023/11/01 00:32:55;;;;;;;0.40;0.30;;;;;;;;;;5075430;28;20083;-77
2023/11/01 00:35:21;;;;;;;0.30;0.28;;;;;;;;;;5079305;28;20024;-76
2023/11/01 00:37:47;;;;;;;0.20;0.20;;;;;;;;;;5092371;28;20076;-78
2023/11/01 00:40:13;;;;;;;0.28;0.20;;;;;;;;;;5075620;28;20491;-77
2023/11/01 00:42:39;;;;;;;0.20;0.20;;;;;;;;;;5074690;28;20032;-77
2023/11/01 00:45:06;;;;;;;0.20;0.20;;;;;;;;;;5074228;28;20077;-78
2023/11/01 00:47:32;;;;;;;0.63;0.35;;;;;;;;;;5056436;28;20031;-78
2023/11/01 00:49:58;;;;;;;0.47;0.25;;;;;;;;;;5056690;28;20070;-78
2023/11/01 00:52:25;;;;;;;0.38;0.38;;;;;;;;;;5065615;28;20021;-76
2023/11/01 00:54:51;;;;;;;0.20;0.20;;;;;;;;;;5054253;28;20040;-77
2023/11/01 00:57:17;;;;;;;1.33;0.30;;;;;;;;;;5073941;28;20051;-77
2023/11/01 00:59:43;;;;;;;0.50;0.45;;;;;;;;;;5073895;28;20463;-78
2023/11/01 01:02:09;;;;;;;0.82;0.38;;;;;;;;;;5055954;28;20395;-78
2023/11/01 01:04:35;;;;;;;0.28;0.20;;;;;;;;;;5073790;28;20538;-77
2023/11/01 01:07:01;;;;;;;0.40;0.20;;;;;;;;;;5074078;28;20067;-77
2023/11/01 01:09:27;;;;;;;0.20;0.20;;;;;;;;;;5055489;28;20434;-78
2023/11/01 01:11:53;;;;;;;0.22;0.22;;;;;;;;;;5073743;28;20024;-78
2023/11/01 01:14:19;;;;;;;0.68;0.32;;;;;;;;;;5073583;28;20036;-78
2023/11/01 01:16:46;;;;;;;0.20;0.20;;;;;;;;;;5073625;28;20383;-77
2023/11/01 01:19:12;;;;;;;0.20;0.20;;;;;;;;;;5073962;28;20027;-78
2023/11/01 01:21:38;;;;;;;0.93;0.43;;;;;;;;;;5074201;28;20506;-76
2023/11/01 01:24:04;;;;;;;0.57;0.17;;;;;;;;;;5073010;28;20036;-78
2023/11/01 01:26:31;;;;;;;1.15;0.38;;;;;;;;;;5073640;28;20024;-76
2023/11/01 01:28:57;;;;;;;0.60;0.30;;;;;;;;;;5073518;28;20029;-78
2023/11/01 01:31:23;;;;;;;0.55;0.20;;;;;;;;;;5074077;28;20036;-79
2023/11/01 01:33:49;;;;;;;0.38;0.38;;;;;;;;;;5057615;28;20507;-77
2023/11/01 01:36:15;;;;;;;0.65;0.20;;;;;;;;;;5079454;28;20029;-78
2023/11/01 01:38:41;;;;;;;0.90;0.50;;;;;;;;;;5088796;28;20153;-77
2023/11/01 01:41:08;;;;;;;0.38;0.30;;;;;;;;;;5097723;28;20028;-76
2023/11/01 01:43:34;;;;;;;0.20;0.20;;;;;;;;;;5089274;28;20028;-78
2023/11/01 01:46:09;;;;;;;1.52;0.20;;;;;;;;;;5072309;28;20028;-75
2023/11/01 01:48:36;;;;;;;0.52;0.30;;;;;;;;;;5089164;28;20037;-77
2023/11/01 01:51:02;;;;;;;0.30;0.20;;;;;;;;;;5083754;28;20067;-78
2023/11/01 01:53:29;;;;;;;0.13;0.13;;;;;;;;;;5073338;28;20392;-77
2023/11/01 01:55:55;;;;;;;0.20;0.20;;;;;;;;;;5073216;28;20529;-77
2023/11/01 01:58:22;;;;;;;0.75;0.50;;;;;;;;;;5078398;28;20028;-78
2023/11/01 02:00:49;;;;;;;1.20;0.45;;;;;;;;;;5075689;28;20031;-77
2023/11/01 02:03:15;;;;;;;0.20;0.20;;;;;;;;;;5077171;28;20040;-78
2023/11/01 02:05:42;;;;;;;0.28;0.20;;;;;;;;;;5074448;28;20063;-77
2023/11/01 02:08:08;;;;;;;0.40;0.13;;;;;;;;;;5056988;28;20426;-77
2023/11/01 02:10:35;;;;;;;0.15;0.15;;;;;;;;;;5076502;28;20479;-77
2023/11/01 02:13:14;;;;;;;0.40;0.30;;;;;;;;;;5073239;28;20112;-76
2023/11/01 02:15:41;;;;;;;0.20;0.20;;;;;;;;;;5072642;28;20025;-77
2023/11/01 02:18:07;;;;;;;0.30;0.13;;;;;;;;;;5071990;28;20017;-77
2023/11/01 02:20:37;;;;;;;0.30;0.25;;;;;;;;;;5072840;28;20027;-79
2023/11/01 02:23:04;;;;;;;1.33;0.20;;;;;;;;;;5072478;28;20077;-77
2023/11/01 02:25:30;;;;;;;0.10;0.10;;;;;;;;;;5054400;28;20430;-77
2023/11/01 02:27:57;;;;;;;0.35;0.20;;;;;;;;;;5072598;28;20032;-77
2023/11/01 02:30:24;;;;;;;0.13;0.13;;;;;;;;;;5073389;28;20114;-78
2023/11/01 02:32:50;;;;;;;0.82;0.30;;;;;;;;;;5072387;28;20032;-78
2023/11/01 02:35:17;;;;;;;0.35;0.10;;;;;;;;;;5072133;28;20017;-78
2023/11/01 02:37:43;;;;;;;0.22;0.10;;;;;;;;;;5071942;28;20025;-77
2023/11/01 02:40:09;;;;;;;0.13;0.13;;;;;;;;;;5080607;28;20331;-78
2023/11/01 02:42:36;;;;;;;0.38;0.20;;;;;;;;;;5072099;28;20028;-78
2023/11/01 02:45:02;;;;;;;0.10;0.10;;;;;;;;;;5073032;28;20078;-79
2023/11/01 02:47:28;;;;;;;0.15;0.10;;;;;;;;;;5075067;28;20016;-77
2023/11/01 02:49:54;;;;;;;0.10;0.10;;;;;;;;;;5076966;28;20056;-77
2023/11/01 02:52:20;;;;;;;0.20;0.20;;;;;;;;;;5077460;28;20083;-78
2023/11/01 02:54:46;;;;;;;0.13;0.10;;;;;;;;;;5078207;28;20029;-78
2023/11/01 02:57:13;;;;;;;0.25;0.17;;;;;;;;;;5057075;28;20040;-77
2023/11/01 02:59:39;;;;;;;0.10;0.10;;;;;;;;;;5058142;28;20029;-78
2023/11/01 03:02:06;;;;;;;0.20;0.20;;;;;;;;;;5072922;28;20438;-78
2023/11/01 03:04:32;;;;;;;0.25;0.20;;;;;;;;;;5076452;28;20024;-78
2023/11/01 03:06:58;;;;;;;0.20;0.20;;;;;;;;;;5076583;28;20076;-78
2023/11/01 03:09:24;;;;;;;0.15;0.10;;;;;;;;;;5076520;28;20095;-77
2023/11/01 03:11:50;;;;;;;0.13;0.13;;;;;;;;;;5076598;28;20044;-78
2023/11/01 03:14:16;;;;;;;0.47;0.25;;;;;;;;;;5077193;28;20028;-77
2023/11/01 03:16:42;;;;;;;0.08;0.08;;;;;;;;;;5075904;28;20025;-77
2023/11/01 03:19:09;;;;;;;0.28;0.20;;;;;;;;;;5075419;28;20020;-78
2023/11/01 03:21:35;;;;;;;0.15;0.15;;;;;;;;;;5075818;28;20047;-78
2023/11/01 03:24:01;;;;;;;0.03;0.03;;;;;;;;;;5076297;28;20029;-76
2023/11/01 03:26:27;;;;;;;0.28;0.28;;;;;;;;;;5075636;28;20028;-80
2023/11/01 03:28:53;;;;;;;1.27;0.38;;;;;;;;;;5075861;28;20020;-78
2023/11/01 03:31:20;;;;;;;0.10;0.10;;;;;;;;;;5075819;28;20024;-78
2023/11/01 03:33:47;;;;;;;0.68;0.30;;;;;;;;;;5075838;28;20029;-78
2023/11/01 03:36:13;;;;;;;0.10;0.10;;;;;;;;;;5075802;28;20471;-77
2023/11/01 03:38:39;;;;;;;0.20;0.20;;;;;;;;;;5075715;28;20037;-76
2023/11/01 03:41:05;;;;;;;1.55;0.10;;;;;;;;;;5078227;28;20096;-77
2023/11/01 03:43:33;;;;;;;0.10;0.10;;;;;;;;;;5075507;28;20077;-78
2023/11/01 03:45:59;;;;;;;0.20;0.17;;;;;;;;;;5075499;28;20028;-78
2023/11/01 03:48:26;;;;;;;0.20;0.20;;;;;;;;;;5064122;28;20057;-78
2023/11/01 03:50:52;;;;;;;0.17;0.15;;;;;;;;;;5071317;28;20041;-78
2023/11/01 03:53:18;;;;;;;0.65;0.30;;;;;;;;;;5075190;28;20031;-78
2023/11/01 03:55:44;;;;;;;0.10;0.03;;;;;;;;;;5075746;28;20021;-77
2023/11/01 03:58:10;;;;;;;0.17;0.17;;;;;;;;;;5089915;28;20043;-79
2023/11/01 04:00:36;;;;;;;0.22;0.20;;;;;;;;;;5086739;28;20025;-77
2023/11/01 04:03:02;;;;;;;0.40;0.10;;;;;;;;;;5066177;28;20035;-77
2023/11/01 04:05:28;;;;;;;0.05;0.00;;;;;;;;;;5065548;28;20036;-78
2023/11/01 04:07:54;;;;;;;0.30;0.20;;;;;;;;;;5080299;28;20034;-76
2023/11/01 04:10:21;;;;;;;0.20;0.20;;;;;;;;;;5084758;28;20035;-76
2023/11/01 04:12:47;;;;;;;0.35;0.22;;;;;;;;;;5080866;28;20033;-76
2023/11/01 04:15:13;;;;;;;0.20;0.20;;;;;;;;;;5082757;28;20025;-75
2023/11/01 04:17:39;;;;;;;0.43;0.20;;;;;;;;;;5083927;28;20044;-75
2023/11/01 04:20:08;;;;;;;0.20;0.20;;;;;;;;;;5095090;28;20080;-75
2023/11/01 04:22:34;;;;;;;0.20;0.20;;;;;;;;;;5088425;28;20107;-73
2023/11/01 04:25:01;;;;;;;0.40;0.22;;;;;;;;;;5076172;28;20407;-75
2023/11/01 04:27:27;;;;;;;0.20;0.20;;;;;;;;;;5074705;28;20024;-75
2023/11/01 04:29:54;;;;;;;0.40;0.20;;;;;;;;;;5076082;28;20406;-74
2023/11/01 04:32:28;;;;;;;0.20;0.20;;;;;;;;;;5079063;28;20016;-74
2023/11/01 04:34:55;;;;;;;0.00;0.00;;;;;;;;;;5077156;28;20024;-74
2023/11/01 04:37:23;;;;;;;1.67;0.20;;;;;;;;;;5072076;28;20060;-75
2023/11/01 04:39:50;;;;;;;0.35;0.30;;;;;;;;;;5076623;28;20020;-76
2023/11/01 04:42:16;;;;;;;0.10;0.10;;;;;;;;;;5094490;28;20016;-75
2023/11/01 04:44:45;;;;;;;0.10;0.10;;;;;;;;;;5094601;28;20024;-76
2023/11/01 04:47:12;;;;;;;0.10;0.10;;;;;;;;;;5071412;28;20488;-76
2023/11/01 04:49:38;;;;;;;0.20;0.10;;;;;;;;;;5054294;28;20025;-76
2023/11/01 04:52:06;;;;;;;0.20;0.20;;;;;;;;;;5054294;28;20025;-75
2023/11/01 04:54:33;;;;;;;0.10;0.10;;;;;;;;;;5054197;28;20104;-74
2023/11/01 04:57:00;;;;;;;0.20;0.20;;;;;;;;;;5065422;28;20085;-76
2023/11/01 04:59:27;;;;;;;0.57;0.30;;;;;;;;;;5054041;28;20013;-76
2023/11/01 05:01:53;;;;;;;0.13;0.13;;;;;;;;;;5054138;28;20029;-76
2023/11/01 05:04:19;;;;;;;0.10;0.10;;;;;;;;;;5053946;28;20448;-75
2023/11/01 05:06:45;;;;;;;0.30;0.20;;;;;;;;;;5055310;28;20470;-74
2023/11/01 05:09:12;;;;;;;0.30;0.10;;;;;;;;;;5076129;28;20016;-74
2023/11/01 05:11:39;;;;;;;0.38;0.10;;;;;;;;;;5073627;28;20384;-74
2023/11/01 05:14:05;;;;;;;0.47;0.20;;;;;;;;;;5073691;28;20467;-75
2023/11/01 05:16:32;;;;;;;0.10;0.10;;;;;;;;;;5073648;28;20025;-74
2023/11/01 05:18:58;;;;;;;0.35;0.17;;;;;;;;;;5072637;28;20021;-74
2023/11/01 05:21:24;;;;;;;0.28;0.20;;;;;;;;;;5073382;28;20013;-74
2023/11/01 05:23:50;;;;;;;0.20;0.20;;;;;;;;;;5073454;28;20036;-75
2023/11/01 05:26:17;;;;;;;0.10;0.10;;;;;;;;;;5073242;28;20045;-74
2023/11/01 05:28:44;;;;;;;0.13;0.10;;;;;;;;;;5060059;28;20036;-75
2023/11/01 05:31:10;;;;;;;0.10;0.10;;;;;;;;;;5061247;28;20031;-75
2023/11/01 05:33:36;;;;;;;0.10;0.10;;;;;;;;;;5073900;28;20029;-76
2023/11/01 05:36:09;;;;;;;0.03;0.03;;;;;;;;;;5073591;28;20032;-75
2023/11/01 05:38:35;;;;;;;0.05;0.05;;;;;;;;;;5072059;28;20112;-74
2023/11/01 05:41:01;;;;;;;0.32;0.32;;;;;;;;;;5073060;28;20028;-75
2023/11/01 05:43:27;;;;;;;0.40;0.20;;;;;;;;;;5073477;28;20031;-75
2023/11/01 05:45:53;;;;;;;0.20;0.13;;;;;;;;;;5073412;28;20028;-75
2023/11/01 05:48:19;;;;;;;0.08;0.08;;;;;;;;;;5078848;28;20020;-74
2023/11/01 05:50:45;;;;;;;0.10;0.10;;;;;;;;;;5094824;28;20025;-75
2023/11/01 05:53:12;;;;;;;0.10;0.10;;;;;;;;;;5077371;28;20028;-74
2023/11/01 05:55:38;;;;;;;0.32;0.08;;;;;;;;;;5073383;28;20028;-75
2023/11/01 05:58:08;;;;;;;0.10;0.10;;;;;;;;;;5075001;28;20021;-74
2023/11/01 06:00:35;;;;;;;0.10;0.10;;;;;;;;;;5056198;28;20059;-79
2023/11/01 06:03:01;;;;;;;0.17;0.10;;;;;;;;;;5075676;28;20025;-77
2023/11/01 06:05:27;;;;;;;0.00;0.00;;;;;;;;;;5083039;28;20028;-77
2023/11/01 06:07:53;;;;;;;0.15;0.03;;;;;;;;;;5097077;28;20043;-76
2023/11/01 06:10:20;;;;;;;0.08;0.08;;;;;;;;;;5107953;28;20393;-76
2023/11/01 06:12:46;;;;;;;0.22;0.20;;;;;;;;;;5084471;28;20035;-75
2023/11/01 06:15:13;;;;;;;0.20;0.10;;;;;;;;;;5083221;28;20016;-78
2023/11/01 06:17:39;;;;;;;0.03;0.00;;;;;;;;;;5080164;28;20025;-77
2023/11/01 06:20:06;;;;;;;0.10;0.10;;;;;;;;;;5078731;28;20021;-77
2023/11/01 06:22:32;;;;;;;0.10;0.10;;;;;;;;;;5057027;28;20032;-81
2023/11/01 06:25:00;;;;;;;0.20;0.10;;;;;;;;;;5087913;28;20088;-76
2023/11/01 06:27:26;;;;;;;0.00;0.00;;;;;;;;;;5076398;28;20032;-75
2023/11/01 06:29:52;;;;;;;0.15;0.10;;;;;;;;;;5073173;28;20025;-75
2023/11/01 06:32:18;;;;;;;0.52;0.30;;;;;;;;;;5061608;28;20029;-74
2023/11/01 06:34:45;;;;;;;0.10;0.10;;;;;;;;;;5053403;28;20032;-74
2023/11/01 06:37:11;;;;;;;0.08;0.08;;;;;;;;;;5052222;28;20475;-74
2023/11/01 06:39:37;;;;;;;0.38;0.10;;;;;;;;;;5069061;28;20028;-74
2023/11/01 06:42:03;;;;;;;0.20;0.20;;;;;;;;;;5074181;28;20027;-74
2023/11/01 06:44:29;;;;;;;0.08;0.08;;;;;;;;;;5086273;28;20040;-73
2023/11/01 06:46:55;;;;;;;0.25;0.25;;;;;;;;;;5066271;28;20079;-75
2023/11/01 06:49:21;;;;;;;0.10;0.10;;;;;;;;;;5071992;28;20032;-75
2023/11/01 06:51:47;;;;;;;0.00;0.00;;;;;;;;;;5053750;28;20033;-74
2023/11/01 06:54:13;;;;;;;0.10;0.10;;;;;;;;;;5071652;28;20364;-74
2023/11/01 06:56:46;;;;;;;0.13;0.10;;;;;;;;;;5051359;28;20021;-74
2023/11/01 06:59:13;;;;;;;0.22;0.20;;;;;;;;;;5071771;28;20039;-74
2023/11/01 07:01:39;;;;;;;0.30;0.03;;;;;;;;;;5053498;28;20116;-74
2023/11/01 07:04:06;;;;;;;0.10;0.10;;;;;;;;;;5071522;28;20429;-74
2023/11/01 07:06:32;;;;;;;0.10;0.10;;;;;;;;;;5039477;28;20082;-74
2023/11/01 07:08:58;;;;;;;0.10;0.10;;;;;;;;;;5057294;28;20070;-73
2023/11/01 07:11:24;;;;;;;0.10;0.10;;;;;;;;;;5091610;28;21145;-73
2023/11/01 07:13:51;;;;;;;0.32;0.20;;;;;;;;;;5091444;28;20028;-74
2023/11/01 07:16:17;;;;;;;0.10;0.10;;;;;;;;;;5055576;28;20373;-73
2023/11/01 07:18:43;;;;;;;0.20;0.20;;;;;;;;;;5051355;28;20028;-74
2023/11/01 07:21:10;;;;;;;0.10;0.10;;;;;;;;;;5051409;28;20029;-74
2023/11/01 07:23:36;;;;;;;0.10;0.10;;;;;;;;;;5051608;28;20037;-74
2023/11/01 07:26:02;;;;;;;0.20;0.15;;;;;;;;;;5057737;28;20021;-74
2023/11/01 07:28:30;;;;;;;0.40;0.20;;;;;;;;;;5051026;28;20025;-74
2023/11/01 07:30:56;;;;;;;0.10;0.10;;;;;;;;;;5034040;28;20040;-74
2023/11/01 07:33:23;;;;;;;0.10;0.10;;;;;;;;;;5053245;28;20021;-74
2023/11/01 07:35:49;;;;;;;0.32;0.10;;;;;;;;;;5055403;28;20392;-74
2023/11/01 07:38:15;;;;;;;0.10;0.10;;;;;;;;;;5071122;28;20016;-74
2023/11/01 07:40:41;;;;;;;0.10;0.10;;;;;;;;;;5089997;28;20429;-73
2023/11/01 07:43:07;;;;;;;0.22;0.22;;;;;;;;;;5094900;28;20020;-74
2023/11/01 07:45:33;;;;;;;0.30;0.20;;;;;;;;;;5077592;28;20475;-74
2023/11/01 07:47:59;;;;;;;0.22;0.20;;;;;;;;;;5066230;28;20040;-75
2023/11/01 07:50:25;;;;;;;0.13;0.10;;;;;;;;;;5055349;28;20071;-74
2023/11/01 07:52:51;;;;;;;0.30;0.20;;;;;;;;;;5055166;28;20258;-74
2023/11/01 07:55:17;;;;;;;0.25;0.25;;;;;;;;;;5059276;28;20099;-76
2023/11/01 07:57:44;;;;;;;0.10;0.10;;;;;;;;;;5065556;28;20103;-75
2023/11/01 08:00:12;;;;;;;0.55;0.20;;;;;;;;;;5054827;28;20167;-74
2023/11/01 08:02:38;;;;;;;0.28;0.25;;;;;;;;;;5055034;28;20028;-74
2023/11/01 08:05:05;;;;;;;0.00;0.00;;;;;;;;;;5054777;28;20159;-74
2023/11/01 08:07:32;;;;;;;0.28;0.20;;;;;;;;;;5054874;28;20053;-74
2023/11/01 08:09:58;;;;;;;0.10;0.10;;;;;;;;;;5077402;28;20078;-74
2023/11/01 08:12:24;;;;;;;0.30;0.20;;;;;;;;;;5068120;28;20054;-74
2023/11/01 08:14:50;;;;;;;0.25;0.20;;;;;;;;;;5094507;28;20032;-73
2023/11/01 08:17:17;;;;;;;0.30;0.17;;;;;;;;;;5061655;28;20033;-74
2023/11/01 08:19:43;;;;;;;0.10;0.10;;;;;;;;;;5054556;28;20384;-74
2023/11/01 08:22:12;;;;;;;0.10;0.10;;;;;;;;;;5054349;28;20028;-75
2023/11/01 08:24:38;;;;;;;0.30;0.30;;;;;;;;;;5054538;28;20025;-73
2023/11/01 08:27:05;;;;;;;0.28;0.10;;;;;;;;;;5061549;28;20036;-74
2023/11/01 08:29:33;;;;;;;0.10;0.10;;;;;;;;;;5054582;28;20017;-74
2023/11/01 08:31:59;;;;;;;0.10;0.10;;;;;;;;;;5054914;28;20116;-74
2023/11/01 08:34:26;;;;;;;0.10;0.10;;;;;;;;;;5054609;28;20021;-74
2023/11/01 08:36:52;;;;;;;0.20;0.20;;;;;;;;;;5061424;28;20032;-74
2023/11/01 08:39:18;;;;;;;0.20;0.17;;;;;;;;;;5081735;28;20425;-74
2023/11/01 08:41:44;;;;;;;0.20;0.20;;;;;;;;;;5076989;28;20058;-75
2023/11/01 08:44:10;;;;;;;0.10;0.10;;;;;;;;;;5094288;28;20034;-75
2023/11/01 08:46:36;;;;;;;0.20;0.15;;;;;;;;;;5090167;28;20095;-75
2023/11/01 08:49:02;;;;;;;0.20;0.20;;;;;;;;;;5071751;28;20024;-75
2023/11/01 08:51:28;;;;;;;0.15;0.15;;;;;;;;;;5055354;28;20376;-74
2023/11/01 08:53:54;;;;;;;0.30;0.30;;;;;;;;;;5055466;28;20047;-74
2023/11/01 08:56:20;;;;;;;0.10;0.10;;;;;;;;;;5069775;28;20021;-74
2023/11/01 08:58:46;;;;;;;0.13;0.13;;;;;;;;;;5052031;28;20509;-73
2023/11/01 09:01:12;;;;;;;0.17;0.15;;;;;;;;;;5056290;28;20043;-74
2023/11/01 09:03:38;;;;;;;0.15;0.15;;;;;;;;;;5056131;28;20103;-74
2023/11/01 09:06:04;;;;;;;0.10;0.10;;;;;;;;;;5056567;28;20029;-73
2023/11/01 09:08:30;;;;;;;0.15;0.15;;;;;;;;;;5066756;28;20455;-75
2023/11/01 09:10:57;;;;;;;0.13;0.13;;;;;;;;;;5087998;28;20035;-74
2023/11/01 09:13:23;;;;;;;0.30;0.20;;;;;;;;;;5080105;28;20021;-73
2023/11/01 09:15:50;;;;;;;0.25;0.20;;;;;;;;;;5083064;28;20020;-74
2023/11/01 09:18:16;;;;;;;0.20;0.20;;;;;;;;;;5074237;28;20044;-73
2023/11/01 09:20:42;;;;;;;0.40;0.30;;;;;;;;;;5061390;28;20052;-74
2023/11/01 09:23:08;;;;;;;0.20;0.20;;;;;;;;;;5061238;28;20032;-74
2023/11/01 09:25:34;;;;;;;0.30;0.20;;;;;;;;;;5066854;28;20585;-74
2023/11/01 09:28:00;;;;;;;0.30;0.30;;;;;;;;;;5075697;28;20095;-75
2023/11/01 09:30:26;;;;;;;0.20;0.20;;;;;;;;;;5061962;28;20063;-74
2023/11/01 09:32:52;;;;;;;0.20;0.20;;;;;;;;;;5062780;28;20037;-73
2023/11/01 09:35:18;;;;;;;0.30;0.30;;;;;;;;;;5056824;28;20102;-74
2023/11/01 09:37:44;;;;;;;0.38;0.30;;;;;;;;;;5053664;28;20490;-74
2023/11/01 09:40:11;;;;;;;0.45;0.30;;;;;;;;;;5082402;28;20024;-75
2023/11/01 09:42:40;;;;;;;0.55;0.30;;;;;;;;;;5093098;28;20028;-74
2023/11/01 09:45:10;;;;;;;0.30;0.30;;;;;;;;;;5094911;28;20027;-73
2023/11/01 09:47:40;;;;;;;0.63;0.22;;;;;;;;;;5094423;28;20020;-74
2023/11/01 09:50:07;;;;;;;0.30;0.25;;;;;;;;;;5066785;28;20057;-74
2023/11/01 09:52:33;;;;;;;0.30;0.20;;;;;;;;;;5054572;28;20021;-74
2023/11/01 09:55:00;;;;;;;0.10;0.10;;;;;;;;;;5055259;28;20495;-74
2023/11/01 09:57:29;;;;;;;0.20;0.20;;;;;;;;;;5073946;28;20029;-74
2023/11/01 09:59:55;;;;;;;0.25;0.25;;;;;;;;;;5064359;28;20379;-74
2023/11/01 10:02:22;;;;;;;0.68;0.40;;;;;;;;;;5052564;28;20078;-74
2023/11/01 10:04:50;;;;;;;0.17;0.17;;;;;;;;;;5052569;28;20025;-74
2023/11/01 10:07:16;;;;;;;0.22;0.22;;;;;;;;;;5061114;28;20271;-74
2023/11/01 10:09:42;;;;;;;0.45;0.30;;;;;;;;;;5053509;28;20028;-74
2023/11/01 10:12:08;;;;;;;0.85;0.20;;;;;;;;;;5087543;28;20059;-74
2023/11/01 10:14:36;;;;;;;0.40;0.40;;;;;;;;;;5075550;28;20024;-74
2023/11/01 10:17:02;;;;;;;4.05;0.70;;;;;;;;;;5092517;28;20024;-74
2023/11/01 10:19:29;;;;;;;1.00;0.28;;;;;;;;;;5092216;28;20077;-75
2023/11/01 10:21:55;;;;;;;1.48;0.38;;;;;;;;;;5057071;28;20021;-74
2023/11/01 10:24:25;;;;;;;2.05;0.38;;;;;;;;;;5073171;28;20036;-74
2023/11/01 10:26:52;;;;;;;0.43;0.40;;;;;;;;;;5072491;28;20025;-73
2023/11/01 10:29:18;;;;;;;0.45;0.30;;;;;;;;;;5072282;28;20029;-73
2023/11/01 10:31:54;;;;;;;0.50;0.47;;;;;;;;;;5072765;28;20027;-73
2023/11/01 10:34:27;;;;;;;0.20;0.20;;;;;;;;;;5073569;28;20059;-74
2023/11/01 10:36:54;;;;;;;1.02;0.20;;;;;;;;;;5072286;28;20017;-74
2023/11/01 10:39:21;;;;;;;0.30;0.25;;;;;;;;;;5060515;28;20093;-74
2023/11/01 10:41:49;;;;;;;1.02;0.38;;;;;;;;;;5070666;28;20483;-74
2023/11/01 10:44:15;;;;;;;0.13;0.13;;;;;;;;;;5073818;28;20090;-74
2023/11/01 10:46:42;;;;;;;2.20;0.93;;;;;;;;;;5071991;28;20430;-75
2023/11/01 10:49:14;;;;;;;0.38;0.30;;;;;;;;;;5053455;28;20028;-74
2023/11/01 10:51:42;;;;;;;0.30;0.30;;;;;;;;;;5071665;28;20035;-75
2023/11/01 10:54:08;;;;;;;0.45;0.45;;;;;;;;;;5071761;28;20112;-74
2023/11/01 10:56:35;;;;;;;0.65;0.30;;;;;;;;;;5072361;28;20475;-75
2023/11/01 10:59:21;;;;;;;0.57;0.40;;;;;;;;;;5071368;28;20020;-74
2023/11/01 11:01:54;;;;;;;0.38;0.20;;;;;;;;;;5049904;28;20033;-74
2023/11/01 11:04:39;;;;;;;0.43;0.25;;;;;;;;;;5051791;28;20033;-74
2023/11/01 11:07:32;;;;;;;0.20;0.20;;;;;;;;;;5051780;28;20059;-74
2023/11/01 11:09:58;;;;;;;;;;;;;;;;;;5078898;28;20049;-74
2023/11/01 11:12:24;;;;;;;0.20;0.20;;;;;;;;;;5075020;28;19932;-75
2023/11/01 11:14:54;;;;;;;0.20;0.20;;;;;;;;;;5055302;28;20029;-74
2023/11/01 11:17:21;;;;;;;0.20;0.20;;;;;;;;;;5055248;28;20037;-75
2023/11/01 11:20:05;;;;;;;0.40;0.20;;;;;;;;;;5054928;28;20090;-74
2023/11/01 11:22:50;;;;;;;0.20;0.20;;;;;;;;;;5063212;28;20025;-74
2023/11/01 11:25:35;;;;;;;0.63;0.40;;;;;;;;;;5075560;28;20020;-74
2023/11/01 11:28:02;;;;;;;1.08;0.32;;;;;;;;;;5074653;28;20024;-74
2023/11/01 11:31:01;;;;;;;0.40;0.30;;;;;;;;;;5074741;28;20031;-74
2023/11/01 11:33:27;;;;;;;1.40;0.30;;;;;;;;;;5062432;28;20134;-75
2023/11/01 11:36:09;;;;;;;1.15;0.38;;;;;;;;;;5057558;28;20052;-75
2023/11/01 11:38:35;;;;;;;0.40;0.40;;;;;;;;;;5054589;28;20044;-75
2023/11/01 11:41:20;;;;;;;0.47;0.47;;;;;;;;;;5070035;28;20052;-75
2023/11/01 11:43:59;;;;;;;0.30;0.20;;;;;;;;;;5074547;28;20032;-74
2023/11/01 11:46:28;;;;;;;0.22;0.20;;;;;;;;;;5056388;28;20032;-74
2023/11/01 11:48:54;;;;;;;0.40;0.40;;;;;;;;;;5054319;28;20025;-75
2023/11/01 11:51:20;;;;;;;0.40;0.20;;;;;;;;;;5055143;28;20099;-75
2023/11/01 11:53:46;;;;;;;0.20;0.20;;;;;;;;;;5054758;28;20116;-75
2023/11/01 11:56:13;;;;;;;0.20;0.20;;;;;;;;;;5066248;28;20099;-74
2023/11/01 11:58:39;;;;;;;0.20;0.20;;;;;;;;;;5074336;28;20074;-74
2023/11/01 12:01:05;;;;;;;0.32;0.30;;;;;;;;;;5074506;28;20059;-74
2023/11/01 12:03:31;;;;;;;0.47;0.20;;;;;;;;;;5069118;28;20021;-74
2023/11/01 12:06:01;;;;;;;0.50;0.28;;;;;;;;;;5054575;28;20139;-75
2023/11/01 12:08:38;;;;;;;0.30;0.30;;;;;;;;;;5036509;28;20025;-75
2023/11/01 12:11:05;;;;;;;0.20;0.20;;;;;;;;;;5070378;28;20016;-75
2023/11/01 12:13:41;;;;;;;0.20;0.20;;;;;;;;;;5055748;28;20810;-74
2023/11/01 12:16:07;;;;;;;0.28;0.28;;;;;;;;;;5074545;28;20446;-74
2023/11/01 12:18:33;;;;;;;0.22;0.20;;;;;;;;;;5063212;28;20467;-74
2023/11/01 12:20:59;;;;;;;0.47;0.22;;;;;;;;;;5054200;28;20021;-75
2023/11/01 12:23:25;;;;;;;0.20;0.20;;;;;;;;;;5054080;28;20079;-73
2023/11/01 12:25:52;;;;;;;0.30;0.30;;;;;;;;;;5073468;28;20033;-74
2023/11/01 12:28:23;;;;;;;0.40;0.30;;;;;;;;;;5073823;28;20094;-74
2023/11/01 12:30:50;;;;;;;0.10;0.10;;;;;;;;;;5073850;28;20024;-74
2023/11/01 12:33:19;;;;;;;0.45;0.30;;;;;;;;;;5073966;28;20029;-74
2023/11/01 12:35:45;;;;;;;0.17;0.17;;;;;;;;;;5073172;28;20036;-75
2023/11/01 12:38:15;;;;;;;0.40;0.20;;;;;;;;;;5063612;28;20055;-74
2023/11/01 12:40:41;;;;;;;0.20;0.20;;;;;;;;;;5089194;28;20104;-76
2023/11/01 12:43:08;;;;;;;0.30;0.30;;;;;;;;;;5094639;28;20047;-74
2023/11/01 12:45:34;;;;;;;0.10;0.10;;;;;;;;;;5081963;28;20033;-74
2023/11/01 12:48:00;;;;;;;0.40;0.20;;;;;;;;;;5073623;28;20422;-75
2023/11/01 12:50:30;;;;;;;0.20;0.20;;;;;;;;;;5073907;28;20044;-74
2023/11/01 12:52:57;;;;;;;0.20;0.20;;;;;;;;;;5074099;28;20024;-75
2023/11/01 12:55:23;;;;;;;0.25;0.20;;;;;;;;;;5055588;28;20028;-75
2023/11/01 12:57:59;;;;;;;0.20;0.20;;;;;;;;;;5073626;28;20024;-75
2023/11/01 13:00:28;;;;;;;0.20;0.20;;;;;;;;;;5055779;28;20029;-74
2023/11/01 13:02:54;;;;;;;0.17;0.17;;;;;;;;;;5055949;28;20024;-74
2023/11/01 13:05:21;;;;;;;0.32;0.32;;;;;;;;;;5070045;28;20100;-75
2023/11/01 13:07:47;;;;;;;0.20;0.20;;;;;;;;;;5042922;28;20119;-74
2023/11/01 13:10:14;;;;;;;0.10;0.10;;;;;;;;;;5073592;28;20017;-74
2023/11/01 13:12:42;;;;;;;0.22;0.22;;;;;;;;;;5073541;28;20013;-75
2023/11/01 13:15:09;;;;;;;0.20;0.20;;;;;;;;;;5073757;28;20119;-74
2023/11/01 13:17:35;;;;;;;0.20;0.20;;;;;;;;;;5072596;28;20033;-74
2023/11/01 13:20:01;;;;;;;0.17;0.17;;;;;;;;;;5073337;28;20032;-75
2023/11/01 13:22:27;;;;;;;0.20;0.20;;;;;;;;;;5073236;28;20032;-73
2023/11/01 13:24:53;;;;;;;0.95;0.82;;;;;;;;;;5073385;28;20032;-73
2023/11/01 13:27:19;;;;;;;0.30;0.30;;;;;;;;;;5058840;28;20030;-74
2023/11/01 13:29:48;;;;;;;0.30;0.30;;;;;;;;;;5053210;28;20033;-74
2023/11/01 13:32:14;;;;;;;0.30;0.30;;;;;;;;;;5053555;28;20029;-74
2023/11/01 13:34:40;;;;;;;0.25;0.22;;;;;;;;;;5053845;28;20031;-74
2023/11/01 13:37:06;;;;;;;0.20;0.20;;;;;;;;;;5063223;28;20541;-73
2023/11/01 13:39:33;;;;;;;0.30;0.30;;;;;;;;;;5082231;28;20107;-74
2023/11/01 13:41:59;;;;;;;0.20;0.20;;;;;;;;;;5060538;28;20479;-73
2023/11/01 13:44:26;;;;;;;0.30;0.30;;;;;;;;;;5073814;28;20032;-73
2023/11/01 13:46:52;;;;;;;0.22;0.15;;;;;;;;;;5072693;28;20147;-73
2023/11/01 13:49:19;;;;;;;0.25;0.20;;;;;;;;;;5074495;28;20102;-74
2023/11/01 13:51:45;;;;;;;0.28;0.28;;;;;;;;;;5074537;28;20048;-74
2023/11/01 13:54:11;;;;;;;0.17;0.17;;;;;;;;;;5073650;28;20395;-74
2023/11/01 13:56:37;;;;;;;0.60;0.40;;;;;;;;;;5072924;28;20016;-73
2023/11/01 13:59:03;;;;;;;0.13;0.13;;;;;;;;;;5052720;28;20101;-74
2023/11/01 14:01:30;;;;;;;0.10;0.10;;;;;;;;;;5052937;28;20384;-75
2023/11/01 14:03:58;;;;;;;0.30;0.30;;;;;;;;;;5053564;28;20051;-74
2023/11/01 14:06:25;;;;;;;0.32;0.22;;;;;;;;;;5053416;28;20110;-74
2023/11/01 14:08:54;;;;;;;0.30;0.25;;;;;;;;;;5074157;28;20039;-74
2023/11/01 14:11:24;;;;;;;0.43;0.30;;;;;;;;;;5099278;28;20039;-74
2023/11/01 14:13:51;;;;;;;0.28;0.28;;;;;;;;;;5095914;28;20028;-75
2023/11/01 14:16:17;;;;;;;0.30;0.30;;;;;;;;;;5094726;28;20020;-73
2023/11/01 14:18:43;;;;;;;0.30;0.30;;;;;;;;;;5069882;28;20029;-74
2023/11/01 14:21:10;;;;;;;0.20;0.20;;;;;;;;;;5054006;28;20021;-74
2023/11/01 14:23:37;;;;;;;0.43;0.30;;;;;;;;;;5053596;28;20033;-74
2023/11/01 14:26:04;;;;;;;0.20;0.20;;;;;;;;;;5062922;28;20047;-76
2023/11/01 14:28:30;;;;;;;0.20;0.20;;;;;;;;;;5047400;28;20032;-75
2023/11/01 14:30:56;;;;;;;0.20;0.20;;;;;;;;;;5044498;28;20028;-75
2023/11/01 14:33:23;;;;;;;0.25;0.20;;;;;;;;;;5054903;28;20021;-75
2023/11/01 14:35:49;;;;;;;0.30;0.30;;;;;;;;;;5073787;28;20507;-75
2023/11/01 14:38:16;;;;;;;0.30;0.30;;;;;;;;;;5076792;28;20021;-74
2023/11/01 14:40:42;;;;;;;0.70;0.38;;;;;;;;;;5088440;28;20103;-75
2023/11/01 14:43:11;;;;;;;0.13;0.13;;;;;;;;;;5076412;28;20514;-76